Time;durP1;ratioP1;P1;durP2;ratioP2;P2;SDS_P1;SDS_P2;PMS_P1;PMS_P2;Temp;Humidity;BMP_temperature;BMP_pressure;BME280_temperature;BME280_humidity;BME280_pressure;Samples;Min_cycle;Max_cycle;Signal;HPM_P1;HPM_P2
2024/01/03 00:01:29;;;;;;;0.87;0.63;;;9.60;99.90;;;;;;5002090;28;20061;-80
2024/01/03 00:03:58;;;;;;;0.50;0.50;;;9.60;99.90;;;;;;5002349;28;20018;-80
2024/01/03 00:06:29;;;;;;;0.53;0.53;;;9.60;99.90;;;;;;5002078;28;20034;-78
2024/01/03 00:08:54;;;;;;;0.60;0.60;;;9.60;99.90;;;;;;5002740;28;20026;-81
2024/01/03 00:11:21;;;;;;;1.20;1.10;;;9.70;99.90;;;;;;5000668;28;20096;-80
2024/01/03 00:13:58;;;;;;;0.77;0.50;;;9.60;99.90;;;;;;5002898;28;20035;-80
2024/01/03 00:16:23;;;;;;;1.43;0.60;;;9.50;99.90;;;;;;5001202;28;20034;-80
2024/01/03 00:18:54;;;;;;;1.10;0.70;;;9.40;99.90;;;;;;5002501;28;20042;-80
2024/01/03 00:21:25;;;;;;;1.77;0.70;;;9.40;99.90;;;;;;5002147;28;20032;-79
2024/01/03 00:24:00;;;;;;;0.70;0.70;;;9.40;99.90;;;;;;5003152;28;20026;-80
2024/01/03 00:26:28;;;;;;;0.53;0.53;;;9.40;99.90;;;;;;5000803;28;20042;-79
2024/01/03 00:28:55;;;;;;;1.37;0.73;;;9.30;99.90;;;;;;5001821;28;20182;-78
2024/01/03 00:31:40;;;;;;;1.67;0.73;;;9.40;99.90;;;;;;5002386;28;20057;-79
2024/01/03 00:34:21;;;;;;;;;;;9.30;99.90;;;;;;5002879;28;20032;-80
2024/01/03 00:36:51;;;;;;;0.97;0.80;;;9.30;99.90;;;;;;5001398;28;19987;-80
2024/01/03 00:39:43;;;;;;;0.63;0.63;;;9.20;99.90;;;;;;4983119;28;20038;-80
2024/01/03 00:42:08;;;;;;;0.63;0.60;;;9.20;99.90;;;;;;5003131;28;20026;-79
2024/01/03 00:44:34;;;;;;;0.57;0.57;;;9.30;99.90;;;;;;5001121;28;20045;-80
2024/01/03 00:46:59;;;;;;;0.93;0.70;;;9.20;99.90;;;;;;5002407;28;20042;-79
2024/01/03 00:49:25;;;;;;;0.80;0.80;;;9.30;99.90;;;;;;5005240;28;20038;-80
2024/01/03 00:51:51;;;;;;;1.80;0.70;;;9.20;99.90;;;;;;5005532;28;20030;-80
2024/01/03 00:54:18;;;;;;;0.93;0.70;;;9.20;99.90;;;;;;5005498;28;20444;-80
2024/01/03 00:56:45;;;;;;;0.80;0.70;;;9.20;99.90;;;;;;5004425;28;20105;-79
2024/01/03 00:59:12;;;;;;;0.53;0.53;;;9.20;99.90;;;;;;5005785;28;20093;-78
2024/01/03 01:01:37;;;;;;;0.80;0.73;;;9.30;99.90;;;;;;5004733;28;20102;-80
2024/01/03 01:04:03;;;;;;;0.90;0.60;;;9.30;99.90;;;;;;5004600;28;20125;-80
2024/01/03 01:06:29;;;;;;;0.87;0.70;;;9.30;99.90;;;;;;5004059;28;20040;-79
2024/01/03 01:08:55;;;;;;;0.60;0.60;;;9.20;99.90;;;;;;5004219;28;20057;-80
2024/01/03 01:11:21;;;;;;;0.83;0.60;;;9.20;99.90;;;;;;5004192;28;20037;-80
2024/01/03 01:13:46;;;;;;;0.50;0.50;;;9.20;99.90;;;;;;5005273;28;20026;-79
2024/01/03 01:16:12;;;;;;;1.50;0.70;;;9.20;99.90;;;;;;5003213;28;20128;-80
2024/01/03 01:18:41;;;;;;;1.03;0.90;;;9.20;99.90;;;;;;5004877;28;20034;-82
2024/01/03 01:21:06;;;;;;;1.03;0.80;;;9.20;99.90;;;;;;5006020;28;20026;-80
2024/01/03 01:23:33;;;;;;;0.83;0.63;;;9.30;99.90;;;;;;5005765;28;20027;-79
2024/01/03 01:25:58;;;;;;;2.07;0.90;;;9.30;99.90;;;;;;5006301;28;20045;-80
2024/01/03 01:28:24;;;;;;;0.60;0.60;;;9.30;99.90;;;;;;5005145;28;20023;-79
2024/01/03 01:30:50;;;;;;;0.83;0.80;;;9.20;99.90;;;;;;5005641;28;20038;-80
2024/01/03 01:33:15;;;;;;;0.60;0.50;;;9.20;99.90;;;;;;5004681;28;20026;-80
2024/01/03 01:35:41;;;;;;;0.70;0.60;;;9.10;99.90;;;;;;5004134;28;20058;-80
2024/01/03 01:38:06;;;;;;;0.40;0.40;;;9.20;99.90;;;;;;5006032;28;20041;-79
2024/01/03 01:40:32;;;;;;;1.53;0.80;;;9.20;99.90;;;;;;5005813;28;20025;-81
2024/01/03 01:42:58;;;;;;;1.70;0.70;;;9.20;99.90;;;;;;4988987;28;20040;-78
2024/01/03 01:45:23;;;;;;;0.67;0.63;;;9.30;99.90;;;;;;5006795;28;20035;-79
2024/01/03 01:47:50;;;;;;;0.83;0.70;;;9.30;99.90;;;;;;5007484;28;20023;-80
2024/01/03 01:50:17;;;;;;;0.50;0.50;;;9.30;99.90;;;;;;5004595;28;20033;-80
2024/01/03 01:52:43;;;;;;;0.60;0.60;;;9.30;99.90;;;;;;5006810;28;20034;-80
2024/01/03 01:55:09;;;;;;;1.20;0.70;;;9.40;99.90;;;;;;5004759;28;20030;-79
2024/01/03 01:57:37;;;;;;;1.33;0.60;;;9.40;99.90;;;;;;5003929;28;20022;-78
2024/01/03 02:00:04;;;;;;;1.13;0.60;;;9.40;99.90;;;;;;5002954;28;20053;-79
2024/01/03 02:02:30;;;;;;;0.50;0.50;;;9.40;99.90;;;;;;5004686;28;20090;-80
2024/01/03 02:04:56;;;;;;;0.70;0.57;;;9.40;99.90;;;;;;5004817;28;20023;-79
2024/01/03 02:07:24;;;;;;;0.50;0.50;;;9.40;99.90;;;;;;5003953;28;20026;-79
2024/01/03 02:09:49;;;;;;;0.70;0.70;;;9.40;99.90;;;;;;5003321;28;20049;-80
2024/01/03 02:12:15;;;;;;;1.50;0.50;;;9.40;99.90;;;;;;5004476;28;20035;-80
2024/01/03 02:14:40;;;;;;;0.60;0.60;;;9.50;99.90;;;;;;5004270;28;20042;-80
2024/01/03 02:17:06;;;;;;;0.50;0.50;;;9.50;99.90;;;;;;5003102;28;20312;-79
2024/01/03 02:19:32;;;;;;;0.53;0.53;;;9.40;99.90;;;;;;4985741;28;20101;-80
2024/01/03 02:22:00;;;;;;;0.80;0.60;;;9.50;99.90;;;;;;5003398;28;20160;-80
2024/01/03 02:24:25;;;;;;;0.80;0.60;;;9.40;99.90;;;;;;5004627;28;20042;-80
2024/01/03 02:26:51;;;;;;;1.63;0.80;;;9.40;99.90;;;;;;5003093;28;20034;-80
2024/01/03 02:29:16;;;;;;;0.50;0.50;;;9.30;99.90;;;;;;5003597;28;20033;-81
2024/01/03 02:31:42;;;;;;;1.10;0.83;;;9.20;99.90;;;;;;5004187;28;20031;-80
2024/01/03 02:34:07;;;;;;;0.83;0.63;;;9.20;99.90;;;;;;5003591;28;20022;-78
2024/01/03 02:36:33;;;;;;;1.23;0.50;;;9.20;99.90;;;;;;5002935;28;20483;-78
2024/01/03 02:38:59;;;;;;;0.60;0.40;;;9.30;99.90;;;;;;5002677;28;20057;-79
2024/01/03 02:41:25;;;;;;;2.10;0.67;;;9.30;99.90;;;;;;5002989;28;20034;-80
2024/01/03 02:43:50;;;;;;;0.50;0.50;;;9.20;99.90;;;;;;5003493;28;20041;-80
2024/01/03 02:46:19;;;;;;;1.00;0.63;;;9.30;99.90;;;;;;5003506;28;20445;-79
2024/01/03 02:48:45;;;;;;;0.60;0.60;;;9.30;99.90;;;;;;5004377;28;20484;-81
2024/01/03 02:51:22;;;;;;;1.90;0.80;;;9.20;99.90;;;;;;5003697;28;20030;-80
2024/01/03 02:53:49;;;;;;;0.80;0.60;;;9.20;99.90;;;;;;5003351;28;20026;-80
2024/01/03 02:56:15;;;;;;;0.93;0.50;;;9.20;99.90;;;;;;5003282;28;20038;-80
2024/01/03 02:58:40;;;;;;;0.50;0.50;;;9.20;99.90;;;;;;5004334;28;20089;-79
2024/01/03 03:01:06;;;;;;;1.17;0.60;;;9.20;99.90;;;;;;5003630;28;20139;-78
2024/01/03 03:03:32;;;;;;;0.50;0.50;;;9.10;99.90;;;;;;5003185;28;20577;-78
2024/01/03 03:05:57;;;;;;;0.83;0.70;;;9.20;99.90;;;;;;5003594;28;20042;-80
2024/01/03 03:08:23;;;;;;;0.60;0.60;;;9.30;99.90;;;;;;5003530;28;20064;-80
2024/01/03 03:10:49;;;;;;;0.87;0.60;;;9.20;99.90;;;;;;5002634;28;20053;-80
2024/01/03 03:13:14;;;;;;;1.13;0.60;;;9.30;99.90;;;;;;5004362;28;20018;-81
2024/01/03 03:15:42;;;;;;;0.57;0.50;;;9.30;99.90;;;;;;5004811;28;20034;-80
2024/01/03 03:18:07;;;;;;;0.77;0.50;;;9.30;99.90;;;;;;5005573;28;20042;-81
2024/01/03 03:20:33;;;;;;;0.50;0.50;;;9.40;99.90;;;;;;5006234;28;20034;-78
2024/01/03 03:22:59;;;;;;;0.97;0.60;;;9.50;99.90;;;;;;4984867;28;20035;-81
2024/01/03 03:25:24;;;;;;;0.60;0.60;;;9.40;99.90;;;;;;5002928;28;20045;-79
2024/01/03 03:27:50;;;;;;;0.90;0.60;;;9.50;99.90;;;;;;5002383;28;20037;-80
2024/01/03 03:30:17;;;;;;;0.60;0.60;;;9.50;99.90;;;;;;5003361;28;20057;-80
2024/01/03 03:32:44;;;;;;;0.73;0.60;;;9.50;99.90;;;;;;5002723;28;20099;-78
2024/01/03 03:35:13;;;;;;;1.50;0.90;;;9.60;99.90;;;;;;5001119;28;20180;-79
2024/01/03 03:37:40;;;;;;;1.10;0.57;;;9.50;99.90;;;;;;5002594;28;20062;-79
2024/01/03 03:40:06;;;;;;;0.57;0.57;;;9.40;99.90;;;;;;5001883;28;20045;-79
2024/01/03 03:42:32;;;;;;;1.00;0.60;;;9.40;99.90;;;;;;4984833;28;20517;-80
2024/01/03 03:44:57;;;;;;;0.50;0.50;;;9.40;99.90;;;;;;5002430;28;20027;-79
2024/01/03 03:47:23;;;;;;;1.23;0.60;;;9.40;99.90;;;;;;5003350;28;20046;-80
2024/01/03 03:49:48;;;;;;;1.60;0.57;;;9.40;99.90;;;;;;5003298;28;20091;-80
2024/01/03 03:52:14;;;;;;;0.50;0.50;;;9.40;99.90;;;;;;5002987;28;20110;-79
2024/01/03 03:54:39;;;;;;;0.60;0.60;;;9.40;99.90;;;;;;5003432;28;20084;-81
2024/01/03 03:57:05;;;;;;;1.00;0.60;;;9.40;99.90;;;;;;4985186;28;20060;-79
2024/01/03 03:59:30;;;;;;;2.20;0.80;;;9.30;99.90;;;;;;5003430;28;20022;-80
2024/01/03 04:01:56;;;;;;;1.73;0.60;;;9.40;99.90;;;;;;5003474;28;20041;-80
2024/01/03 04:04:21;;;;;;;0.60;0.60;;;9.30;99.90;;;;;;4984383;28;20040;-80
2024/01/03 04:06:47;;;;;;;1.03;0.63;;;9.30;99.90;;;;;;5004611;28;20623;-80
2024/01/03 04:09:16;;;;;;;0.57;0.57;;;9.20;99.90;;;;;;5004039;28;20042;-79
2024/01/03 04:11:42;;;;;;;0.60;0.60;;;9.20;99.90;;;;;;4986580;28;20069;-81
2024/01/03 04:14:09;;;;;;;0.70;0.60;;;9.30;99.90;;;;;;5006416;28;20033;-80
2024/01/03 04:16:35;;;;;;;0.50;0.50;;;9.30;99.90;;;;;;5002941;28;20026;-80
2024/01/03 04:19:01;;;;;;;0.97;0.50;;;9.30;99.90;;;;;;5001807;28;20042;-79
2024/01/03 04:21:28;;;;;;;0.60;0.60;;;9.20;99.90;;;;;;5002220;28;20034;-79
2024/01/03 04:23:53;;;;;;;1.10;0.80;;;9.20;99.90;;;;;;5005975;28;20062;-81
2024/01/03 04:26:19;;;;;;;1.27;0.60;;;9.20;99.90;;;;;;5005146;28;20080;-78
2024/01/03 04:28:44;;;;;;;0.60;0.53;;;9.20;99.90;;;;;;5006252;28;20038;-80
2024/01/03 04:31:10;;;;;;;0.93;0.70;;;9.20;99.90;;;;;;5005582;28;20030;-81
2024/01/03 04:33:35;;;;;;;1.30;0.60;;;9.30;99.90;;;;;;5006151;28;20025;-79
2024/01/03 04:36:01;;;;;;;0.70;0.70;;;9.20;99.90;;;;;;5005428;28;20040;-80
2024/01/03 04:38:26;;;;;;;1.27;0.60;;;9.30;99.90;;;;;;5004401;28;20099;-79
2024/01/03 04:40:52;;;;;;;1.17;0.60;;;9.20;99.90;;;;;;5004619;28;20934;-81
2024/01/03 04:43:17;;;;;;;1.83;0.60;;;9.30;99.90;;;;;;5006147;28;20026;-79
2024/01/03 04:45:43;;;;;;;2.47;0.57;;;9.20;99.90;;;;;;5004941;28;20126;-80
2024/01/03 04:48:08;;;;;;;0.50;0.50;;;9.30;99.90;;;;;;5005667;28;20022;-80
2024/01/03 04:50:34;;;;;;;0.40;0.40;;;9.30;99.90;;;;;;5006159;28;20074;-80
2024/01/03 04:52:59;;;;;;;1.30;0.60;;;9.30;99.90;;;;;;5005372;28;20041;-80
2024/01/03 04:55:26;;;;;;;0.90;0.60;;;9.30;99.90;;;;;;5005004;28;20045;-80
2024/01/03 04:57:52;;;;;;;1.57;0.50;;;9.30;99.90;;;;;;4987714;28;20032;-80
2024/01/03 05:00:18;;;;;;;0.93;0.50;;;9.30;99.90;;;;;;5005169;28;20035;-80
2024/01/03 05:02:43;;;;;;;0.50;0.50;;;9.30;99.90;;;;;;4986576;28;20101;-79
2024/01/03 05:05:09;;;;;;;0.50;0.50;;;9.20;99.90;;;;;;4985947;28;20030;-80
2024/01/03 05:07:34;;;;;;;0.50;0.50;;;9.30;99.90;;;;;;5005218;28;20524;-81
2024/01/03 05:10:01;;;;;;;0.50;0.50;;;9.20;99.90;;;;;;5002254;28;20041;-81
2024/01/03 05:12:27;;;;;;;2.67;0.50;;;9.20;99.90;;;;;;5004910;28;20034;-81
2024/01/03 05:14:52;;;;;;;0.60;0.60;;;9.20;99.90;;;;;;5001561;28;20033;-80
2024/01/03 05:17:18;;;;;;;0.40;0.40;;;9.20;99.90;;;;;;5004038;28;20066;-80
2024/01/03 05:19:44;;;;;;;0.43;0.43;;;9.30;99.90;;;;;;5002121;28;20114;-79
2024/01/03 05:22:09;;;;;;;0.50;0.50;;;9.30;99.90;;;;;;5004064;28;21057;-81
2024/01/03 05:24:35;;;;;;;0.40;0.40;;;9.30;99.90;;;;;;5002130;28;20026;-80
2024/01/03 05:27:01;;;;;;;0.50;0.50;;;9.30;99.90;;;;;;4996596;28;20034;-80
2024/01/03 05:29:27;;;;;;;0.50;0.50;;;9.30;99.90;;;;;;5003962;28;20026;-80
2024/01/03 05:31:53;;;;;;;0.70;0.70;;;9.20;99.90;;;;;;5005218;28;20104;-80
2024/01/03 05:34:18;;;;;;;0.57;0.57;;;9.10;99.90;;;;;;5004720;28;20042;-80
2024/01/03 05:36:44;;;;;;;1.50;0.50;;;9.10;99.90;;;;;;5003852;28;20121;-81
2024/01/03 05:39:15;;;;;;;0.50;0.50;;;9.10;99.90;;;;;;5004726;28;20025;-80
2024/01/03 05:41:40;;;;;;;0.63;0.53;;;9.10;99.90;;;;;;5004707;28;20028;-80
2024/01/03 05:44:06;;;;;;;0.60;0.60;;;9.00;99.90;;;;;;5004574;28;20501;-80
2024/01/03 05:46:32;;;;;;;0.50;0.50;;;9.10;99.90;;;;;;5004566;28;20092;-79
2024/01/03 05:48:58;;;;;;;1.47;0.60;;;9.10;99.90;;;;;;4999918;28;20030;-72
2024/01/03 05:51:24;;;;;;;0.50;0.50;;;9.10;99.90;;;;;;4987825;28;20391;-71
2024/01/03 05:53:50;;;;;;;0.50;0.40;;;9.00;99.90;;;;;;4993117;28;20033;-77
2024/01/03 05:56:16;;;;;;;0.73;0.50;;;9.00;99.90;;;;;;4981816;28;20523;-72
2024/01/03 05:58:42;;;;;;;0.63;0.53;;;9.00;99.90;;;;;;4987833;28;20493;-72
2024/01/03 06:01:10;;;;;;;0.50;0.50;;;8.90;99.90;;;;;;4987192;28;20106;-79
2024/01/03 06:03:36;;;;;;;0.50;0.50;;;8.90;99.90;;;;;;4994364;28;21671;-79
2024/01/03 06:06:02;;;;;;;0.80;0.50;;;8.80;99.90;;;;;;4995978;28;20040;-79
2024/01/03 06:08:27;;;;;;;0.70;0.70;;;8.90;99.90;;;;;;4994943;28;20034;-79
2024/01/03 06:10:54;;;;;;;0.57;0.50;;;8.90;99.90;;;;;;4995374;28;20050;-79
2024/01/03 06:13:21;;;;;;;0.50;0.50;;;8.80;99.90;;;;;;4996862;28;20038;-80
2024/01/03 06:15:47;;;;;;;1.00;0.50;;;8.80;99.90;;;;;;4993850;28;20041;-79
2024/01/03 06:18:13;;;;;;;0.50;0.50;;;8.80;99.90;;;;;;4995311;28;20034;-79
2024/01/03 06:20:39;;;;;;;0.60;0.50;;;8.70;99.90;;;;;;4996168;28;20048;-80
2024/01/03 06:23:04;;;;;;;0.60;0.50;;;8.70;99.90;;;;;;4994690;28;20042;-80
2024/01/03 06:25:33;;;;;;;1.57;0.67;;;8.70;99.90;;;;;;4999317;28;20112;-80
2024/01/03 06:27:58;;;;;;;0.60;0.60;;;8.60;99.90;;;;;;5001494;28;20126;-78
2024/01/03 06:30:24;;;;;;;0.73;0.60;;;8.50;99.90;;;;;;5000904;28;20046;-80
2024/01/03 06:32:50;;;;;;;0.90;0.60;;;8.50;99.90;;;;;;4999508;28;20094;-80
2024/01/03 06:35:15;;;;;;;0.60;0.60;;;8.50;99.90;;;;;;4997041;28;20041;-79
2024/01/03 06:37:41;;;;;;;1.50;0.90;;;8.50;99.90;;;;;;4994085;28;20577;-80
2024/01/03 06:40:08;;;;;;;0.93;0.80;;;8.60;99.90;;;;;;4995282;28;20551;-80
2024/01/03 06:42:33;;;;;;;0.77;0.70;;;8.60;99.90;;;;;;4993766;28;20089;-80
2024/01/03 06:44:59;;;;;;;0.70;0.70;;;8.50;99.90;;;;;;4996143;28;20109;-80
2024/01/03 06:47:24;;;;;;;1.83;0.90;;;8.50;99.90;;;;;;4975209;28;20022;-79
2024/01/03 06:49:50;;;;;;;0.90;0.70;;;8.50;99.90;;;;;;4994116;28;20026;-80
2024/01/03 06:52:16;;;;;;;1.43;0.60;;;8.40;99.90;;;;;;4992597;28;20026;-79
2024/01/03 06:54:41;;;;;;;1.00;0.60;;;8.50;99.90;;;;;;4992534;28;20058;-79
2024/01/03 06:57:07;;;;;;;3.87;0.60;;;8.50;99.90;;;;;;4991883;28;20026;-81
2024/01/03 06:59:36;;;;;;;0.70;0.70;;;8.50;99.90;;;;;;4976626;28;20026;-79
2024/01/03 07:02:01;;;;;;;1.43;0.73;;;8.50;99.90;;;;;;4993979;28;20105;-81
2024/01/03 07:04:27;;;;;;;1.97;0.70;;;8.60;99.90;;;;;;4993272;28;20053;-80
2024/01/03 07:06:52;;;;;;;1.27;0.60;;;8.50;99.90;;;;;;4995333;28;20027;-80
2024/01/03 07:09:18;;;;;;;0.60;0.60;;;8.60;99.90;;;;;;4995249;28;20032;-80
2024/01/03 07:11:43;;;;;;;1.67;0.93;;;8.50;99.90;;;;;;4978335;28;20062;-79
2024/01/03 07:14:12;;;;;;;1.80;0.60;;;8.50;99.90;;;;;;4996328;28;20022;-82
2024/01/03 07:16:38;;;;;;;1.00;0.73;;;8.60;99.90;;;;;;4993877;28;20034;-79
2024/01/03 07:19:03;;;;;;;0.60;0.50;;;8.60;99.90;;;;;;4992363;28;20044;-81
2024/01/03 07:21:29;;;;;;;0.87;0.70;;;8.60;99.90;;;;;;4992094;28;21046;-82
2024/01/03 07:23:55;;;;;;;0.53;0.50;;;8.60;99.90;;;;;;4977149;28;20058;-83
2024/01/03 07:26:20;;;;;;;0.90;0.60;;;8.50;99.90;;;;;;4992318;28;20057;-84
2024/01/03 07:28:46;;;;;;;0.60;0.60;;;8.50;99.90;;;;;;4977850;28;20037;-84
2024/01/03 07:31:11;;;;;;;2.07;0.80;;;8.50;99.90;;;;;;4998478;28;20034;-83
2024/01/03 07:33:39;;;;;;;0.83;0.70;;;8.50;99.90;;;;;;4999590;28;20022;-83
2024/01/03 07:36:05;;;;;;;1.30;0.80;;;8.50;99.90;;;;;;4997554;28;20181;-84
2024/01/03 07:38:30;;;;;;;0.70;0.70;;;8.50;99.90;;;;;;4994796;28;20026;-84
2024/01/03 07:40:56;;;;;;;4.10;1.17;;;8.60;99.90;;;;;;4976922;28;20048;-84
2024/01/03 07:43:22;;;;;;;1.90;0.83;;;8.70;99.90;;;;;;4995967;28;20096;-82
2024/01/03 07:45:47;;;;;;;1.47;0.87;;;8.70;99.90;;;;;;4996460;28;21139;-82
2024/01/03 07:48:13;;;;;;;2.13;0.70;;;8.80;99.90;;;;;;4999028;28;20069;-83
2024/01/03 07:50:39;;;;;;;2.43;1.00;;;8.80;99.90;;;;;;4996831;28;20029;-83
2024/01/03 07:53:05;;;;;;;2.57;0.93;;;8.90;99.90;;;;;;4997678;28;20026;-83
2024/01/03 07:55:31;;;;;;;4.87;1.00;;;8.90;99.90;;;;;;4997233;28;20030;-84
2024/01/03 07:57:57;;;;;;;1.87;0.90;;;9.00;99.90;;;;;;4996547;28;20133;-83
2024/01/03 08:00:22;;;;;;;2.93;0.73;;;9.10;99.90;;;;;;4994997;28;20025;-84
2024/01/03 08:02:48;;;;;;;3.37;0.93;;;9.20;99.90;;;;;;4996988;28;20026;-82
2024/01/03 08:05:13;;;;;;;3.83;1.40;;;9.20;99.90;;;;;;4992621;28;20034;-84
2024/01/03 08:07:39;;;;;;;4.00;1.07;;;9.20;99.90;;;;;;4995487;28;20122;-85
2024/01/03 08:10:05;;;;;;;5.03;1.20;;;9.10;99.90;;;;;;4986891;28;20026;-84
2024/01/03 08:12:30;;;;;;;3.73;1.10;;;9.10;99.90;;;;;;4990358;28;20413;-84
2024/01/03 08:14:56;;;;;;;3.43;1.00;;;9.00;99.90;;;;;;4987918;28;20042;-84
2024/01/03 08:17:22;;;;;;;4.43;1.10;;;8.90;99.90;;;;;;4989274;28;20022;-82
2024/01/03 08:19:47;;;;;;;6.43;1.53;;;8.90;99.90;;;;;;4989824;28;20047;-84
2024/01/03 08:22:13;;;;;;;3.27;1.20;;;8.80;99.90;;;;;;4992441;28;20137;-84
2024/01/03 08:24:38;;;;;;;2.97;1.33;;;8.80;99.90;;;;;;4985716;28;20122;-84
2024/01/03 08:27:04;;;;;;;2.97;1.10;;;8.80;99.90;;;;;;4989589;28;20121;-85
2024/01/03 08:29:30;;;;;;;6.37;1.50;;;8.90;99.90;;;;;;4989456;28;20065;-85
2024/01/03 08:31:56;;;;;;;6.70;1.17;;;8.80;99.90;;;;;;4989843;28;20033;-84
2024/01/03 08:34:21;;;;;;;3.20;1.03;;;8.90;99.90;;;;;;4988579;28;20034;-84
2024/01/03 08:36:47;;;;;;;4.70;1.10;;;8.90;99.90;;;;;;4986185;28;20049;-84
2024/01/03 08:39:13;;;;;;;1.33;0.83;;;8.90;99.90;;;;;;4985854;28;20026;-85
2024/01/03 08:41:38;;;;;;;2.90;0.97;;;8.90;99.90;;;;;;4987211;28;20030;-85
2024/01/03 08:44:05;;;;;;;3.87;1.17;;;9.00;99.90;;;;;;4986755;28;20602;-84
2024/01/03 08:46:34;;;;;;;4.80;0.90;;;9.00;99.90;;;;;;4988591;28;20049;-85
2024/01/03 08:49:01;;;;;;;4.83;1.03;;;9.10;99.90;;;;;;4993113;28;20027;-85
2024/01/03 08:51:27;;;;;;;1.33;0.87;;;9.10;99.90;;;;;;4992947;28;20030;-85
2024/01/03 08:53:52;;;;;;;2.97;1.00;;;9.10;99.90;;;;;;4991526;28;20088;-85
2024/01/03 08:56:18;;;;;;;2.73;1.30;;;9.20;99.90;;;;;;4991186;28;20115;-85
2024/01/03 08:58:46;;;;;;;3.53;1.20;;;9.20;99.90;;;;;;4995348;28;20014;-85
2024/01/03 09:01:16;;;;;;;2.70;0.90;;;9.10;99.90;;;;;;4977621;28;20026;-84
2024/01/03 09:03:42;;;;;;;2.90;1.00;;;9.20;99.90;;;;;;4994487;28;20053;-85
2024/01/03 09:06:08;;;;;;;1.83;0.90;;;9.20;99.90;;;;;;4994343;28;20069;-85
2024/01/03 09:08:33;;;;;;;1.63;0.70;;;9.20;99.90;;;;;;4992336;28;20030;-84
2024/01/03 09:10:59;;;;;;;1.93;1.00;;;9.30;99.90;;;;;;4998878;28;20750;-84
2024/01/03 09:13:25;;;;;;;1.97;1.00;;;9.30;99.90;;;;;;4995923;28;20035;-84
2024/01/03 09:15:51;;;;;;;0.87;0.80;;;9.40;99.90;;;;;;4982287;28;20030;-84
2024/01/03 09:18:17;;;;;;;3.30;0.87;;;9.50;99.90;;;;;;4994518;28;20088;-84
2024/01/03 09:20:42;;;;;;;5.33;1.13;;;9.50;99.90;;;;;;4998143;28;20026;-84
2024/01/03 09:23:08;;;;;;;3.03;0.90;;;9.50;99.90;;;;;;4996835;28;20090;-84
2024/01/03 09:25:34;;;;;;;3.17;1.07;;;9.60;99.90;;;;;;4992305;28;20061;-84
2024/01/03 09:28:00;;;;;;;1.50;0.97;;;9.60;99.90;;;;;;4996003;28;20124;-84
2024/01/03 09:30:25;;;;;;;2.63;1.10;;;9.70;99.90;;;;;;4996970;28;20041;-84
2024/01/03 09:32:51;;;;;;;2.43;1.00;;;9.70;99.90;;;;;;5000041;28;20167;-84
2024/01/03 09:35:17;;;;;;;5.40;0.90;;;9.70;99.90;;;;;;4997512;28;20030;-84
2024/01/03 09:37:43;;;;;;;2.43;0.80;;;9.70;99.90;;;;;;4994487;28;20049;-85
2024/01/03 09:40:11;;;;;;;4.17;0.90;;;9.60;99.90;;;;;;4996001;28;20057;-85
2024/01/03 09:42:37;;;;;;;2.87;1.37;;;9.70;99.90;;;;;;4974688;28;20026;-84
2024/01/03 09:45:03;;;;;;;2.70;1.00;;;9.80;99.90;;;;;;4994607;28;20026;-83
2024/01/03 09:47:29;;;;;;;3.97;1.33;;;9.90;99.90;;;;;;4997541;28;20022;-83
2024/01/03 09:49:55;;;;;;;1.47;0.90;;;10.00;99.90;;;;;;4995468;28;20026;-83
2024/01/03 09:52:20;;;;;;;3.37;1.10;;;10.20;99.90;;;;;;4995096;28;20176;-83
2024/01/03 09:54:46;;;;;;;2.63;1.03;;;10.40;99.90;;;;;;4999707;28;20034;-84
2024/01/03 09:57:12;;;;;;;3.37;1.30;;;10.50;99.90;;;;;;4996395;28;20099;-83
2024/01/03 09:59:38;;;;;;;1.90;0.93;;;10.60;99.90;;;;;;4996997;28;20058;-83
2024/01/03 10:02:06;;;;;;;2.67;0.90;;;10.70;99.90;;;;;;4993388;28;20136;-83
2024/01/03 10:04:33;;;;;;;2.10;0.80;;;10.80;99.90;;;;;;4995434;28;20031;-83
2024/01/03 10:06:59;;;;;;;3.00;1.00;;;10.80;99.90;;;;;;4996305;28;20934;-83
2024/01/03 10:09:38;;;;;;;1.50;1.00;;;10.90;99.90;;;;;;4994493;28;20050;-83
2024/01/03 10:12:15;;;;;;;3.00;0.93;;;11.00;99.90;;;;;;4998608;28;20027;-84
2024/01/03 10:14:41;;;;;;;2.80;1.03;;;11.10;99.90;;;;;;4993572;28;20039;-84
2024/01/03 10:17:10;;;;;;;1.90;0.80;;;11.20;99.90;;;;;;4992241;28;20036;-83
2024/01/03 10:19:37;;;;;;;3.70;1.20;;;11.20;99.90;;;;;;4979572;28;20040;-83
2024/01/03 10:22:03;;;;;;;2.03;0.90;;;11.10;99.90;;;;;;4997817;28;20049;-84
2024/01/03 10:24:31;;;;;;;2.43;1.00;;;11.10;99.90;;;;;;4996631;28;20034;-83
2024/01/03 10:27:10;;;;;;;4.13;0.90;;;11.10;99.90;;;;;;4996105;28;20038;-84
2024/01/03 10:29:37;;;;;;;2.93;0.90;;;11.20;99.90;;;;;;4997307;28;20034;-84
2024/01/03 10:32:05;;;;;;;4.13;1.00;;;11.20;99.90;;;;;;5000186;28;20034;-83
2024/01/03 10:34:31;;;;;;;5.83;1.30;;;11.10;99.90;;;;;;4998377;28;20026;-84
2024/01/03 10:36:58;;;;;;;3.47;1.07;;;11.10;99.90;;;;;;4997551;28;20062;-83
2024/01/03 10:39:25;;;;;;;2.20;0.93;;;11.10;99.90;;;;;;4997224;28;20121;-83
2024/01/03 10:41:51;;;;;;;3.63;0.80;;;11.00;99.90;;;;;;4999718;28;20034;-84
2024/01/03 10:44:18;;;;;;;2.33;1.00;;;11.00;99.90;;;;;;4995364;28;20102;-84
2024/01/03 10:46:45;;;;;;;3.90;1.40;;;11.00;99.90;;;;;;4998407;28;20101;-83
2024/01/03 10:49:11;;;;;;;2.57;1.00;;;10.90;99.90;;;;;;4998764;28;20065;-84
2024/01/03 10:51:42;;;;;;;1.60;1.03;;;10.90;99.90;;;;;;4996624;28;20033;-84
2024/01/03 10:54:14;;;;;;;2.87;1.00;;;11.00;99.90;;;;;;4999311;28;20026;-84
2024/01/03 10:57:00;;;;;;;1.73;0.87;;;10.90;99.90;;;;;;4999087;28;20129;-84
2024/01/03 10:59:33;;;;;;;2.57;0.80;;;10.90;99.90;;;;;;4997680;28;20043;-83
2024/01/03 11:02:11;;;;;;;2.53;0.97;;;11.10;99.90;;;;;;4999677;28;20030;-83
2024/01/03 11:04:52;;;;;;;1.53;0.90;;;11.10;99.90;;;;;;4999694;28;20026;-84
2024/01/03 11:07:28;;;;;;;3.30;0.83;;;11.10;99.90;;;;;;4999225;28;20034;-84
2024/01/03 11:09:54;;;;;;;2.43;0.87;;;11.10;99.90;;;;;;4995140;28;20037;-83
2024/01/03 11:12:27;;;;;;;1.77;0.90;;;11.10;99.90;;;;;;4993676;28;21045;-84
2024/01/03 11:14:53;;;;;;;2.17;0.90;;;11.10;99.90;;;;;;4969257;28;20022;-85
2024/01/03 11:17:33;;;;;;;2.90;0.80;;;11.10;99.90;;;;;;4987359;28;20041;-85
2024/01/03 11:20:07;;;;;;;1.93;0.80;;;11.10;99.90;;;;;;4987444;28;20046;-85
2024/01/03 11:22:55;;;;;;;2.30;1.00;;;11.10;99.90;;;;;;4988813;28;20026;-85
2024/01/03 11:25:47;;;;;;;3.57;1.10;;;11.10;99.90;;;;;;4986307;28;20045;-84
2024/01/03 11:28:32;;;;;;;3.50;1.20;;;11.10;99.90;;;;;;4986762;28;20592;-85
2024/01/03 11:31:01;;;;;;;2.47;0.85;;;11.10;99.90;;;;;;4986490;28;20121;-86
2024/01/03 11:33:28;;;;;;;3.40;1.00;;;11.10;99.90;;;;;;4988748;28;20033;-85
2024/01/03 11:35:54;;;;;;;3.07;1.20;;;11.10;99.90;;;;;;4988841;28;20033;-82
2024/01/03 11:38:43;;;;;;;2.73;0.97;;;11.10;99.90;;;;;;4994204;28;20030;-82
2024/01/03 11:41:14;;;;;;;2.27;1.07;;;11.10;99.90;;;;;;4980871;28;20018;-82
2024/01/03 11:43:39;;;;;;;2.73;1.07;;;11.10;99.90;;;;;;4999192;28;20718;-82
2024/01/03 11:46:09;;;;;;;3.20;0.80;;;11.10;99.90;;;;;;4993538;28;20049;-83
2024/01/03 11:48:39;;;;;;;3.30;0.90;;;11.10;99.90;;;;;;4993323;28;20038;-82
2024/01/03 11:51:20;;;;;;;4.03;1.00;;;11.20;99.90;;;;;;4976640;28;20041;-82
2024/01/03 11:53:45;;;;;;;3.20;0.90;;;11.20;99.90;;;;;;4994183;28;20045;-81
2024/01/03 11:56:11;;;;;;;2.67;0.87;;;11.30;99.90;;;;;;4994450;28;20023;-83
2024/01/03 11:58:37;;;;;;;2.43;0.90;;;11.50;99.90;;;;;;4990255;28;20035;-82
2024/01/03 12:01:07;;;;;;;2.50;0.80;;;11.50;99.90;;;;;;4993946;28;20031;-82
2024/01/03 12:03:32;;;;;;;3.87;0.93;;;11.70;99.90;;;;;;4992451;28;21025;-83
2024/01/03 12:05:58;;;;;;;1.57;0.70;;;11.80;99.90;;;;;;4990243;28;20109;-83
2024/01/03 12:08:24;;;;;;;4.27;0.97;;;11.90;99.90;;;;;;4991018;28;20026;-82
2024/01/03 12:10:49;;;;;;;3.83;0.80;;;12.10;99.90;;;;;;4970312;28;20026;-84
2024/01/03 12:13:15;;;;;;;4.23;0.90;;;12.30;99.90;;;;;;4987935;28;20018;-83
2024/01/03 12:15:40;;;;;;;1.87;0.70;;;12.40;99.90;;;;;;4988186;28;20154;-84
2024/01/03 12:18:07;;;;;;;1.60;0.80;;;12.50;99.90;;;;;;4985373;28;20062;-84
2024/01/03 12:20:33;;;;;;;1.90;0.80;;;12.60;99.90;;;;;;4985441;28;20054;-83
2024/01/03 12:23:15;;;;;;;2.20;0.97;;;12.60;99.90;;;;;;4988028;28;20035;-83
2024/01/03 12:25:42;;;;;;;2.03;0.85;;;12.60;99.90;;;;;;4989238;28;20061;-82
2024/01/03 12:28:08;;;;;;;1.70;0.60;;;12.60;99.90;;;;;;4985551;28;20038;-83
2024/01/03 12:30:34;;;;;;;2.63;1.00;;;12.70;99.90;;;;;;4988417;28;20036;-83
2024/01/03 12:33:12;;;;;;;3.77;0.73;;;12.60;99.90;;;;;;4988770;28;20053;-83
2024/01/03 12:35:37;;;;;;;2.50;0.90;;;12.50;99.90;;;;;;4989326;28;20484;-82
2024/01/03 12:38:04;;;;;;;2.47;0.77;;;12.50;99.90;;;;;;4987935;28;20017;-82
2024/01/03 12:40:30;;;;;;;1.75;0.80;;;12.50;99.90;;;;;;4987133;28;20038;-83
2024/01/03 12:42:55;;;;;;;2.13;0.85;;;12.50;99.90;;;;;;4989492;28;20030;-82
2024/01/03 12:45:21;;;;;;;4.97;0.90;;;12.50;99.90;;;;;;4971774;28;20088;-82
2024/01/03 12:47:46;;;;;;;1.80;1.15;;;12.60;99.90;;;;;;4986439;28;20031;-82
2024/01/03 12:50:12;;;;;;;6.68;1.17;;;12.60;99.90;;;;;;4989196;28;20036;-82
2024/01/03 12:52:37;;;;;;;3.65;0.82;;;12.60;99.90;;;;;;4989046;28;20077;-83
2024/01/03 12:55:04;;;;;;;6.30;0.80;;;12.60;99.90;;;;;;4990812;28;20121;-83